createdAt,value
2017-05-10T00:00:58.807Z,1014.1
2017-05-10T00:02:01.456Z,1014.1
2017-05-10T00:03:03.796Z,1014.1
2017-05-10T00:04:06.644Z,1014.1
2017-05-10T00:05:08.852Z,1014.1
2017-05-10T00:06:11.696Z,1014
2017-05-10T00:07:14.655Z,1014.1
2017-05-10T00:08:16.994Z,1014
2017-05-10T00:09:19.334Z,1014
2017-05-10T00:10:22.236Z,1014.1
2017-05-10T00:11:24.581Z,1014
2017-05-10T00:13:30.133Z,1013.9
2017-05-10T00:14:32.478Z,1013.9
2017-05-10T00:15:34.826Z,1013.9
2017-05-10T00:16:37.671Z,1013.9
2017-05-10T00:17:40.012Z,1013.9
2017-05-10T00:18:43.162Z,1013.9
2017-05-10T00:20:47.963Z,1013.8
2017-05-10T00:21:50.306Z,1013.8
2017-05-10T00:22:53.150Z,1013.8
2017-05-10T00:23:55.793Z,1013.8
2017-05-10T00:24:58.125Z,1013.8
2017-05-10T00:26:00.965Z,1013.8
2017-05-10T00:27:03.304Z,1013.8
2017-05-10T00:28:06.151Z,1013.7
2017-05-10T00:29:08.794Z,1013.7
2017-05-10T00:30:11.143Z,1013.7
2017-05-10T00:31:13.986Z,1013.7
2017-05-10T00:32:16.698Z,1013.7
2017-05-10T00:33:19.040Z,1013.6
2017-05-10T00:34:22.145Z,1013.6
2017-05-10T00:35:24.490Z,1013.6
2017-05-10T00:36:26.832Z,1013.6
2017-05-10T00:37:29.233Z,1013.6
2017-05-10T00:38:32.077Z,1013.6
2017-05-10T00:39:34.674Z,1013.6
2017-05-10T00:40:37.016Z,1013.6
2017-05-10T00:41:39.728Z,1013.5
2017-05-10T00:42:42.145Z,1013.5
2017-05-10T00:43:44.994Z,1013.5
2017-05-10T00:44:47.693Z,1013.5
2017-05-10T00:45:50.103Z,1013.5
2017-05-10T00:46:52.951Z,1013.5
2017-05-10T00:47:55.292Z,1013.5
2017-05-10T00:50:00.794Z,1013.5
2017-05-10T00:51:03.136Z,1013.5
2017-05-10T00:52:05.472Z,1013.5
2017-05-10T00:53:08.316Z,1013.4
2017-05-10T00:56:16.325Z,1013.5
2017-05-10T00:57:18.663Z,1013.5
2017-05-10T00:58:21.000Z,1013.5
2017-05-10T00:59:23.845Z,1013.5
2017-05-10T01:00:26.554Z,1013.5
2017-05-10T01:01:29.149Z,1013.4
2017-05-10T01:02:31.541Z,1013.4
2017-05-10T01:03:34.393Z,1013.4
2017-05-10T01:05:39.143Z,1013.4
2017-05-10T01:06:42.296Z,1013.4
2017-05-10T01:07:44.641Z,1013.4
2017-05-10T01:08:46.979Z,1013.4
2017-05-10T01:09:49.693Z,1013.4
2017-05-10T01:11:55.191Z,1013.3
2017-05-10T01:12:57.530Z,1013.3
2017-05-10T01:15:02.788Z,1013.3
2017-05-10T01:17:08.074Z,1013.3
2017-05-10T01:18:10.408Z,1013.3
2017-05-10T01:19:12.988Z,1013.3
2017-05-10T01:20:15.562Z,1013.3
2017-05-10T01:21:18.476Z,1013.3
2017-05-10T01:22:21.073Z,1013.2
2017-05-10T01:23:23.283Z,1013.2
2017-05-10T01:24:26.128Z,1013.2
2017-05-10T01:25:28.476Z,1013.2
2017-05-10T01:26:31.319Z,1013.2
2017-05-10T01:27:33.923Z,1013.2
2017-05-10T01:28:36.263Z,1013.1
2017-05-10T01:29:39.103Z,1013.2
2017-05-10T01:30:41.308Z,1013.1
2017-05-10T01:31:44.160Z,1013.1
2017-05-10T01:32:46.807Z,1013.1
2017-05-10T01:33:49.534Z,1013.1
2017-05-10T01:34:51.871Z,1013.1
2017-05-10T01:35:54.716Z,1013.1
2017-05-10T01:36:57.057Z,1013.1
2017-05-10T01:38:00.156Z,1013.1
2017-05-10T01:39:02.495Z,1013
2017-05-10T01:40:04.736Z,1013.1
2017-05-10T01:41:07.455Z,1013.1
2017-05-10T01:42:09.856Z,1013.1
2017-05-10T01:43:13.003Z,1013.1
2017-05-10T01:44:15.343Z,1013.1
2017-05-10T01:45:17.685Z,1013.1
2017-05-10T01:46:20.530Z,1013
2017-05-10T01:47:23.244Z,1013
2017-05-10T01:48:25.837Z,1013
2017-05-10T01:49:28.185Z,1012.9
2017-05-10T01:50:30.525Z,1013
2017-05-10T01:51:33.372Z,1013
2017-05-10T01:52:35.710Z,1013
2017-05-10T01:53:38.689Z,1012.9
2017-05-10T01:54:41.044Z,1013
2017-05-10T01:55:43.888Z,1013
2017-05-10T01:56:46.234Z,1012.9
2017-05-10T01:57:49.082Z,1012.9
2017-05-10T01:58:51.678Z,1012.9
2017-05-10T01:59:54.017Z,1012.9
2017-05-10T02:00:56.869Z,1012.9
2017-05-10T02:03:01.616Z,1012.8
2017-05-10T02:05:07.171Z,1012.8
2017-05-10T02:06:09.513Z,1012.8
2017-05-10T02:07:12.359Z,1012.8
2017-05-10T02:08:14.798Z,1012.7
2017-05-10T02:09:17.139Z,1012.7
2017-05-10T02:10:20.251Z,1012.7
2017-05-10T02:11:22.592Z,1012.7
2017-05-10T02:12:25.307Z,1012.6
2017-05-10T02:13:27.649Z,1012.6
2017-05-10T02:14:30.499Z,1012.5
2017-05-10T02:15:33.091Z,1012.6
2017-05-10T02:16:35.438Z,1012.5
2017-05-10T02:17:37.783Z,1012.5
2017-05-10T02:18:40.632Z,1012.5
2017-05-10T02:19:42.975Z,1012.5
2017-05-10T02:20:45.939Z,1012.5
2017-05-10T02:21:48.205Z,1012.5
2017-05-10T02:22:51.057Z,1012.4
2017-05-10T02:23:53.403Z,1012.5
2017-05-10T02:24:56.246Z,1012.5
2017-05-10T02:25:58.839Z,1012.5
2017-05-10T02:27:01.182Z,1012.6
2017-05-10T02:28:04.026Z,1012.6
2017-05-10T02:29:06.363Z,1012.6
2017-05-10T02:30:09.143Z,1012.7
2017-05-10T02:31:12.102Z,1012.7
2017-05-10T02:32:14.450Z,1012.6
2017-05-10T02:33:16.822Z,1012.6
2017-05-10T02:34:19.661Z,1012.6
2017-05-10T02:35:21.998Z,1012.6
2017-05-10T02:36:24.594Z,1012.6
2017-05-10T02:37:26.938Z,1012.6
2017-05-10T02:38:29.783Z,1012.6
2017-05-10T02:39:32.491Z,1012.5
2017-05-10T02:40:34.835Z,1012.5
2017-05-10T02:41:37.849Z,1012.5
2017-05-10T02:42:40.191Z,1012.5
2017-05-10T02:43:42.530Z,1012.6
2017-05-10T02:44:45.372Z,1012.6
2017-05-10T02:45:47.711Z,1012.5
2017-05-10T02:46:50.721Z,1012.5
2017-05-10T02:47:53.062Z,1012.5
2017-05-10T02:48:55.402Z,1012.5
2017-05-10T02:49:58.252Z,1012.4
2017-05-10T02:51:00.600Z,1012.4
2017-05-10T02:52:03.705Z,1012.4
2017-05-10T02:54:08.455Z,1012.4
2017-05-10T02:55:11.029Z,1012.4
2017-05-10T02:56:13.875Z,1012.4
2017-05-10T02:57:16.517Z,1012.4
2017-05-10T02:58:18.866Z,1012.3
2017-05-10T02:59:21.708Z,1012.4
2017-05-10T03:00:24.050Z,1012.3
2017-05-10T03:01:26.887Z,1012.3
2017-05-10T03:02:29.375Z,1012.3
2017-05-10T03:05:37.030Z,1012.2
2017-05-10T03:06:39.377Z,1012.2
2017-05-10T03:07:42.474Z,1012.3
2017-05-10T03:08:44.872Z,1012.2
2017-05-10T03:09:47.212Z,1012.2
2017-05-10T03:10:49.921Z,1012.2
2017-05-10T03:11:52.263Z,1012.2
2017-05-10T03:12:55.431Z,1012.2
2017-05-10T03:13:57.779Z,1012.2
2017-05-10T03:15:00.186Z,1012.2
2017-05-10T03:16:02.958Z,1012.2
2017-05-10T03:17:05.298Z,1012.1
2017-05-10T03:18:08.462Z,1012.1
2017-05-10T03:19:10.804Z,1012.1
2017-05-10T03:20:13.141Z,1012.1
2017-05-10T03:21:15.713Z,1012.1
2017-05-10T03:23:21.269Z,1012.1
2017-05-10T03:24:23.613Z,1012.1
2017-05-10T03:25:25.955Z,1012.1
2017-05-10T03:26:28.661Z,1012.1
2017-05-10T03:27:31.059Z,1012.1
2017-05-10T03:28:34.156Z,1012
2017-05-10T03:29:36.493Z,1012
2017-05-10T03:30:38.830Z,1012
2017-05-10T03:31:41.669Z,1012.1
2017-05-10T03:33:47.225Z,1012
2017-05-10T03:34:49.297Z,1012
2017-05-10T03:35:52.157Z,1012
2017-05-10T03:36:54.499Z,1012
2017-05-10T03:37:57.341Z,1012.1
2017-05-10T03:38:59.808Z,1012.1
2017-05-10T03:40:02.016Z,1012.1
2017-05-10T03:41:04.865Z,1012
2017-05-10T03:42:07.249Z,1012
2017-05-10T03:43:10.093Z,1012.1
2017-05-10T03:44:12.738Z,1012
2017-05-10T03:45:14.949Z,1012
2017-05-10T03:46:17.654Z,1012
2017-05-10T03:47:20.499Z,1012
2017-05-10T03:48:22.841Z,1012
2017-05-10T03:49:25.983Z,1012
2017-05-10T03:50:28.324Z,1011.9
2017-05-10T03:51:30.721Z,1011.9
2017-05-10T03:52:33.071Z,1011.9
2017-05-10T03:53:35.918Z,1012
2017-05-10T03:54:38.931Z,1012
2017-05-10T03:55:40.763Z,1012
2017-05-10T04:00:54.039Z,1011.9
2017-05-10T04:01:56.380Z,1011.9
2017-05-10T04:04:01.633Z,1011.9
2017-05-10T04:05:04.473Z,1012
2017-05-10T04:06:07.301Z,1012
2017-05-10T04:07:09.502Z,1012
2017-05-10T04:08:11.843Z,1012
2017-05-10T04:10:17.100Z,1012
2017-05-10T04:11:20.196Z,1012
2017-05-10T04:12:22.536Z,1012
2017-05-10T04:13:24.876Z,1012
2017-05-10T04:14:27.215Z,1012.1
2017-05-10T04:15:30.069Z,1012.1
2017-05-10T04:16:32.707Z,1012.1
2017-05-10T04:17:35.050Z,1012.1
2017-05-10T04:18:37.897Z,1012.1
2017-05-10T04:19:40.234Z,1012.1
2017-05-10T04:20:43.077Z,1012.1
2017-05-10T04:21:45.662Z,1012.1
2017-05-10T04:22:47.879Z,1012.1
2017-05-10T04:23:50.588Z,1012
2017-05-10T04:24:53.437Z,1012
2017-05-10T04:25:55.772Z,1012
2017-05-10T04:26:58.873Z,1012
2017-05-10T04:28:01.215Z,1012
2017-05-10T04:29:03.559Z,1012
2017-05-10T04:30:06.316Z,1012
2017-05-10T04:31:08.592Z,1012
2017-05-10T04:32:11.685Z,1012
2017-05-10T04:33:14.027Z,1012
2017-05-10T04:34:16.364Z,1012
2017-05-10T04:35:19.204Z,1012
2017-05-10T04:36:21.540Z,1012
2017-05-10T04:37:24.635Z,1012
2017-05-10T04:38:26.838Z,1012
2017-05-10T04:39:29.181Z,1012
2017-05-10T04:40:31.891Z,1012
2017-05-10T04:41:34.735Z,1012
2017-05-10T04:42:37.334Z,1012
2017-05-10T04:43:39.683Z,1012
2017-05-10T04:44:42.533Z,1012
2017-05-10T04:45:44.872Z,1012.1
2017-05-10T04:46:47.712Z,1012.1
2017-05-10T04:47:50.351Z,1012.1
2017-05-10T04:48:52.687Z,1012.1
2017-05-10T04:49:55.324Z,1012.1
2017-05-10T04:50:57.668Z,1012
2017-05-10T04:52:00.384Z,1012.1
2017-05-10T04:53:02.984Z,1012.1
2017-05-10T04:54:05.323Z,1012.1
2017-05-10T04:56:10.941Z,1012
2017-05-10T04:57:13.142Z,1012.1
2017-05-10T04:58:15.992Z,1012.1
2017-05-10T04:59:18.371Z,1012
2017-05-10T05:00:21.220Z,1012
2017-05-10T05:01:23.561Z,1012
2017-05-10T05:02:26.402Z,1012
2017-05-10T05:03:28.998Z,1012
2017-05-10T05:04:31.352Z,1012
2017-05-10T05:05:34.205Z,1012
2017-05-10T05:06:36.541Z,1012
2017-05-10T05:07:39.000Z,1012
2017-05-10T05:08:41.963Z,1012.1
2017-05-10T05:09:44.304Z,1012
2017-05-10T05:10:46.645Z,1012
2017-05-10T05:12:51.898Z,1012
2017-05-10T05:14:57.400Z,1012
2017-05-10T05:18:05.058Z,1011.9
2017-05-10T05:19:07.399Z,1012
2017-05-10T05:20:10.499Z,1012
2017-05-10T05:21:12.840Z,1011.9
2017-05-10T05:22:15.415Z,1011.9
2017-05-10T05:23:17.656Z,1012
2017-05-10T05:24:20.543Z,1012
2017-05-10T05:25:23.129Z,1012
2017-05-10T05:26:25.463Z,1012
2017-05-10T05:27:28.306Z,1012
2017-05-10T05:28:30.705Z,1012
2017-05-10T05:29:33.549Z,1012
2017-05-10T05:30:36.194Z,1012
2017-05-10T05:31:38.532Z,1012
2017-05-10T05:32:41.377Z,1011.9
2017-05-10T05:33:43.712Z,1011.9
2017-05-10T05:34:46.609Z,1011.9
2017-05-10T05:35:49.246Z,1011.9
2017-05-10T05:36:51.583Z,1012
2017-05-10T05:37:54.290Z,1011.9
2017-05-10T05:38:56.542Z,1011.9
2017-05-10T05:39:59.386Z,1011.9
2017-05-10T05:41:01.979Z,1011.9
2017-05-10T05:42:04.324Z,1011.9
2017-05-10T05:43:07.169Z,1011.9
2017-05-10T05:44:09.505Z,1011.9
2017-05-10T05:45:12.362Z,1011.9
2017-05-10T05:46:15.324Z,1011.9
2017-05-10T05:47:17.666Z,1011.9
2017-05-10T05:48:20.113Z,1011.9
2017-05-10T05:49:22.951Z,1011.9
2017-05-10T05:50:25.159Z,1011.9
2017-05-10T05:51:28.253Z,1011.9
2017-05-10T05:52:30.513Z,1011.9
2017-05-10T05:53:33.217Z,1011.9
2017-05-10T05:54:35.581Z,1011.9
2017-05-10T05:55:38.426Z,1011.9
2017-05-10T05:56:41.015Z,1011.9
2017-05-10T05:57:43.355Z,1011.9
2017-05-10T05:58:46.197Z,1011.9
2017-05-10T05:59:48.541Z,1011.9
2017-05-10T06:00:51.384Z,1011.9
2017-05-10T06:01:54.036Z,1011.9
2017-05-10T06:02:56.378Z,1011.9
2017-05-10T06:03:59.221Z,1011.9
2017-05-10T06:05:01.563Z,1011.9
2017-05-10T06:06:04.406Z,1011.9
2017-05-10T06:07:07.416Z,1011.9
2017-05-10T06:08:09.752Z,1011.9
2017-05-10T06:09:12.089Z,1011.9
2017-05-10T06:10:14.933Z,1011.9
2017-05-10T06:11:17.311Z,1011.9
2017-05-10T06:12:20.414Z,1011.9
2017-05-10T06:13:22.754Z,1011.8
2017-05-10T06:14:25.099Z,1011.9
2017-05-10T06:15:27.946Z,1011.9
2017-05-10T06:16:30.286Z,1011.9
2017-05-10T06:17:33.388Z,1012
2017-05-10T06:18:35.731Z,1011.9
2017-05-10T06:19:38.071Z,1012
2017-05-10T06:20:40.787Z,1011.9
2017-05-10T06:21:43.123Z,1011.9
2017-05-10T06:22:46.267Z,1011.9
2017-05-10T06:23:48.606Z,1012
2017-05-10T06:24:51.012Z,1012
2017-05-10T06:25:53.852Z,1011.9
2017-05-10T06:26:56.431Z,1012
2017-05-10T06:27:59.020Z,1012
2017-05-10T06:29:01.360Z,1012
2017-05-10T06:30:04.203Z,1012
2017-05-10T06:31:07.047Z,1012
2017-05-10T06:32:09.388Z,1012
2017-05-10T06:33:12.531Z,1012
2017-05-10T06:34:14.760Z,1012
2017-05-10T06:35:17.103Z,1012
2017-05-10T06:36:19.946Z,1012
2017-05-10T06:37:22.287Z,1012
2017-05-10T06:38:25.427Z,1012
2017-05-10T06:39:27.642Z,1012
2017-05-10T06:40:30.489Z,1012
2017-05-10T06:41:33.057Z,1012
2017-05-10T06:42:35.398Z,1012
2017-05-10T06:43:38.413Z,1012
2017-05-10T06:44:40.621Z,1012
2017-05-10T06:45:43.464Z,1012
2017-05-10T06:46:45.801Z,1012
2017-05-10T06:47:48.641Z,1012
2017-05-10T06:48:51.234Z,1011.9
2017-05-10T06:49:53.572Z,1012
2017-05-10T06:50:56.332Z,1012
2017-05-10T06:51:59.044Z,1012
2017-05-10T06:53:01.447Z,1012
2017-05-10T06:54:04.545Z,1011.9
2017-05-10T06:55:06.887Z,1012
2017-05-10T06:56:09.221Z,1011.9
2017-05-10T06:57:12.060Z,1011.9
2017-05-10T06:58:14.897Z,1012
2017-05-10T06:59:17.490Z,1012
2017-05-10T07:00:19.826Z,1012
2017-05-10T07:02:25.111Z,1012
2017-05-10T07:03:27.955Z,1011.9
2017-05-10T07:04:30.549Z,1011.9
2017-05-10T07:05:32.894Z,1012
2017-05-10T07:06:35.733Z,1012
2017-05-10T07:07:38.072Z,1012
2017-05-10T07:08:40.922Z,1012
2017-05-10T07:09:43.563Z,1012
2017-05-10T07:10:45.907Z,1012
2017-05-10T07:11:48.749Z,1012
2017-05-10T07:12:51.125Z,1012.1
2017-05-10T07:14:56.677Z,1012
2017-05-10T07:15:59.017Z,1012
2017-05-10T07:17:01.858Z,1012
2017-05-10T07:18:04.570Z,1012
2017-05-10T07:19:06.906Z,1011.9
2017-05-10T07:20:09.867Z,1012
2017-05-10T07:21:12.072Z,1012
2017-05-10T07:22:14.917Z,1011.9
2017-05-10T07:23:17.763Z,1011.9
2017-05-10T07:24:20.101Z,1011.9
2017-05-10T07:25:23.193Z,1011.9
2017-05-10T07:26:25.532Z,1011.9
2017-05-10T07:27:28.235Z,1011.9
2017-05-10T07:28:30.444Z,1011.9
2017-05-10T07:29:33.284Z,1011.9
2017-05-10T07:30:35.874Z,1011.9
2017-05-10T07:31:38.715Z,1011.8
2017-05-10T07:32:40.925Z,1011.8
2017-05-10T07:33:43.638Z,1011.9
2017-05-10T07:35:49.144Z,1011.8
2017-05-10T07:36:51.499Z,1011.8
2017-05-10T07:37:54.466Z,1011.8
2017-05-10T07:38:56.872Z,1011.8
2017-05-10T07:39:59.712Z,1011.8
2017-05-10T07:41:02.303Z,1011.8
2017-05-10T07:42:04.508Z,1011.8
2017-05-10T07:43:07.593Z,1011.8
2017-05-10T07:44:09.930Z,1011.7
2017-05-10T07:45:12.774Z,1011.7
2017-05-10T07:46:15.511Z,1011.7
2017-05-10T07:47:17.756Z,1011.8
2017-05-10T07:48:20.607Z,1011.8
2017-05-10T07:49:22.950Z,1011.8
2017-05-10T07:50:25.788Z,1011.8
2017-05-10T07:51:28.882Z,1011.7
2017-05-10T07:52:31.083Z,1011.8
2017-05-10T07:53:33.427Z,1011.7
2017-05-10T07:54:36.268Z,1011.8
2017-05-10T07:55:39.113Z,1011.7
2017-05-10T07:56:41.752Z,1011.7
2017-05-10T07:57:44.100Z,1011.7
2017-05-10T07:58:46.816Z,1011.8
2017-05-10T07:59:49.664Z,1011.7
2017-05-10T08:00:51.868Z,1011.7
2017-05-10T08:01:54.866Z,1011.8
2017-05-10T08:02:57.580Z,1011.7
2017-05-10T08:03:59.927Z,1011.7
2017-05-10T08:05:02.633Z,1011.7
2017-05-10T08:06:05.203Z,1011.7
2017-05-10T08:07:08.217Z,1011.7
2017-05-10T08:08:10.562Z,1011.6
2017-05-10T08:09:13.402Z,1011.6
2017-05-10T08:10:15.982Z,1011.6
2017-05-10T08:11:18.322Z,1011.6
2017-05-10T08:12:21.414Z,1011.6
2017-05-10T08:13:23.765Z,1011.6
2017-05-10T08:14:26.472Z,1011.6
2017-05-10T08:15:28.807Z,1011.5
2017-05-10T08:16:31.520Z,1011.5
2017-05-10T08:17:34.529Z,1011.6
2017-05-10T08:18:36.733Z,1011.6
2017-05-10T08:19:39.441Z,1011.6
2017-05-10T08:20:42.281Z,1011.5
2017-05-10T08:21:44.622Z,1011.5
2017-05-10T08:22:47.774Z,1011.6
2017-05-10T08:23:50.114Z,1011.5
2017-05-10T08:24:52.958Z,1011.5
2017-05-10T08:25:55.294Z,1011.5
2017-05-10T08:26:58.139Z,1011.4
2017-05-10T08:28:00.765Z,1011.4
2017-05-10T08:29:03.614Z,1011.4
2017-05-10T08:30:05.966Z,1011.5
2017-05-10T08:31:08.811Z,1011.5
2017-05-10T08:32:11.517Z,1011.5
2017-05-10T08:33:14.022Z,1011.5
2017-05-10T08:34:16.511Z,1011.5
2017-05-10T08:35:19.350Z,1011.5
2017-05-10T08:37:24.463Z,1011.4
2017-05-10T08:38:27.609Z,1011.4
2017-05-10T08:39:29.951Z,1011.4
2017-05-10T08:40:32.352Z,1011.4
2017-05-10T08:41:35.196Z,1011.4
2017-05-10T08:42:38.037Z,1011.4
2017-05-10T08:43:40.633Z,1011.4
2017-05-10T08:44:42.972Z,1011.4
2017-05-10T08:45:45.683Z,1011.4
2017-05-10T08:46:48.526Z,1011.4
2017-05-10T08:47:50.870Z,1011.4
2017-05-10T08:48:53.969Z,1011.4
2017-05-10T08:49:56.321Z,1011.4
2017-05-10T08:50:59.164Z,1011.4
2017-05-10T08:52:01.504Z,1011.4
2017-05-10T08:53:04.215Z,1011.4
2017-05-10T08:54:07.358Z,1011.4
2017-05-10T08:55:09.800Z,1011.4
2017-05-10T08:56:12.512Z,1011.4
2017-05-10T08:57:15.215Z,1011.3
2017-05-10T08:58:17.611Z,1011.3
2017-05-10T08:59:20.764Z,1011.3
2017-05-10T09:00:23.010Z,1011.3
2017-05-10T09:01:25.727Z,1011.3
2017-05-10T09:02:28.063Z,1011.2
2017-05-10T09:04:34.063Z,1011.2
2017-05-10T09:05:36.403Z,1011.2
2017-05-10T09:06:38.748Z,1011.2
2017-05-10T09:07:41.588Z,1011.1
2017-05-10T09:08:44.428Z,1011.1
2017-05-10T09:09:47.067Z,1011.1
2017-05-10T09:10:49.408Z,1011.1
2017-05-10T09:11:52.257Z,1011.1
2017-05-10T09:12:54.651Z,1011.1
2017-05-10T09:13:57.507Z,1011.1
2017-05-10T09:15:00.604Z,1011.2
2017-05-10T09:16:02.947Z,1011.1
2017-05-10T09:17:05.794Z,1011.1
2017-05-10T09:18:08.133Z,1011.1
2017-05-10T09:19:10.971Z,1011.1
2017-05-10T09:20:13.564Z,1011.1
2017-05-10T09:21:16.269Z,1011.1
2017-05-10T09:22:19.109Z,1011.1
2017-05-10T09:23:21.450Z,1011.1
2017-05-10T09:24:24.306Z,1011
2017-05-10T09:25:26.895Z,1011
2017-05-10T09:26:29.739Z,1011
2017-05-10T09:27:32.087Z,1011
2017-05-10T09:28:34.835Z,1011
2017-05-10T09:29:37.678Z,1011
2017-05-10T09:30:40.321Z,1011
2017-05-10T09:31:42.665Z,1011
2017-05-10T09:32:45.507Z,1011
2017-05-10T09:33:48.141Z,1011
2017-05-10T09:35:53.745Z,1010.9
2017-05-10T09:36:56.083Z,1011
2017-05-10T09:37:58.923Z,1011
2017-05-10T09:39:01.639Z,1011
2017-05-10T09:40:03.977Z,1010.9
2017-05-10T09:41:07.179Z,1010.9
2017-05-10T09:42:09.751Z,1011
2017-05-10T09:45:17.410Z,1010.8
2017-05-10T09:46:20.563Z,1010.9
2017-05-10T09:47:22.766Z,1010.8
2017-05-10T09:48:25.610Z,1010.8
2017-05-10T09:49:28.447Z,1010.8
2017-05-10T09:50:30.693Z,1010.8
2017-05-10T09:51:33.850Z,1010.7
2017-05-10T09:52:36.193Z,1010.7
2017-05-10T09:53:39.043Z,1010.8
2017-05-10T09:54:41.384Z,1010.8
2017-05-10T09:55:44.231Z,1010.8
2017-05-10T09:56:47.323Z,1010.7
2017-05-10T09:57:49.587Z,1010.7
2017-05-10T09:58:52.426Z,1010.7
2017-05-10T10:00:57.678Z,1010.8
2017-05-10T10:02:00.305Z,1010.8
2017-05-10T10:03:03.151Z,1010.7
2017-05-10T10:04:05.489Z,1010.8
2017-05-10T10:05:08.199Z,1010.7
2017-05-10T10:06:11.036Z,1010.7
2017-05-10T10:07:13.629Z,1010.7
2017-05-10T10:08:16.476Z,1010.7
2017-05-10T10:09:18.820Z,1010.7
2017-05-10T10:10:21.664Z,1010.7
2017-05-10T10:11:24.320Z,1010.7
2017-05-10T10:12:27.463Z,1010.6
2017-05-10T10:13:29.807Z,1010.7
2017-05-10T10:14:32.188Z,1010.6
2017-05-10T10:15:35.029Z,1010.6
2017-05-10T10:17:40.531Z,1010.6
2017-05-10T10:18:42.873Z,1010.5
2017-05-10T10:19:45.712Z,1010.5
2017-05-10T10:20:48.553Z,1010.5
2017-05-10T10:21:51.269Z,1010.6
2017-05-10T10:22:53.862Z,1010.5
2017-05-10T10:23:56.136Z,1010.5
2017-05-10T10:24:58.989Z,1010.5
2017-05-10T10:26:01.830Z,1010.5
2017-05-10T10:27:04.169Z,1010.6
2017-05-10T10:28:07.262Z,1010.6
2017-05-10T10:29:09.600Z,1010.5
2017-05-10T10:30:12.312Z,1010.6
2017-05-10T10:32:17.562Z,1010.4
2017-05-10T10:33:20.659Z,1010.4
2017-05-10T10:34:23.002Z,1010.4
2017-05-10T10:35:25.845Z,1010.4
2017-05-10T10:36:28.690Z,1010.5
2017-05-10T10:37:31.030Z,1010.5
2017-05-10T10:39:36.525Z,1010.4
2017-05-10T10:40:39.370Z,1010.4
2017-05-10T10:41:42.082Z,1010.4
2017-05-10T10:42:44.417Z,1010.4
2017-05-10T10:43:47.266Z,1010.4
2017-05-10T10:44:50.143Z,1010.4
2017-05-10T10:45:52.347Z,1010.4
2017-05-10T10:46:55.424Z,1010.4
2017-05-10T10:47:57.774Z,1010.3
2017-05-10T10:49:00.619Z,1010.3
2017-05-10T10:50:03.762Z,1010.3
2017-05-10T10:51:06.101Z,1010.3
2017-05-10T10:52:08.717Z,1010.2
2017-05-10T10:53:11.053Z,1010.2
2017-05-10T10:54:13.897Z,1010.2
2017-05-10T10:55:16.921Z,1010.2
2017-05-10T10:56:19.494Z,1010.2
2017-05-10T10:57:21.836Z,1010.1
2017-05-10T10:58:24.675Z,1010.1
2017-05-10T10:59:27.562Z,1010.1
2017-05-10T11:00:30.153Z,1010.1
2017-05-10T11:01:32.488Z,1009.9
2017-05-10T11:02:35.331Z,1009.9
2017-05-10T11:03:38.228Z,1009.9
2017-05-10T11:04:40.566Z,1009.9
2017-05-10T11:05:43.658Z,1010.1
2017-05-10T11:06:45.996Z,1009.9
2017-05-10T11:07:48.837Z,1009.9
2017-05-10T11:08:51.543Z,1009.9
2017-05-10T11:09:54.385Z,1009.9
2017-05-10T11:10:56.974Z,1009.9
2017-05-10T11:11:59.369Z,1009.8
2017-05-10T11:13:02.213Z,1009.9
2017-05-10T11:15:07.457Z,1009.9
2017-05-10T11:16:10.277Z,1009.8
2017-05-10T11:17:13.119Z,1009.9
2017-05-10T11:18:15.693Z,1009.8
2017-05-10T11:19:18.408Z,1009.8
2017-05-10T11:20:20.742Z,1009.8
2017-05-10T11:21:23.698Z,1009.8
2017-05-10T11:22:26.552Z,1009.8
2017-05-10T11:23:28.887Z,1009.8
2017-05-10T11:24:31.774Z,1009.8
2017-05-10T11:25:34.617Z,1009.8
2017-05-10T11:26:37.257Z,1009.8
2017-05-10T11:27:39.961Z,1009.8
2017-05-10T11:28:42.671Z,1009.7
2017-05-10T11:29:45.008Z,1009.7
2017-05-10T11:30:47.583Z,1009.7
2017-05-10T11:31:50.731Z,1009.8
2017-05-10T11:32:52.937Z,1009.7
2017-05-10T11:33:55.779Z,1009.7
2017-05-10T11:34:58.629Z,1009.7
2017-05-10T11:36:00.967Z,1009.7
2017-05-10T11:37:04.058Z,1009.7
2017-05-10T11:38:06.390Z,1009.6
2017-05-10T11:39:09.105Z,1009.7
2017-05-10T11:40:11.813Z,1009.6
2017-05-10T11:41:14.524Z,1009.6
2017-05-10T11:42:17.666Z,1009.6
2017-05-10T11:43:20.242Z,1009.6
2017-05-10T11:44:22.577Z,1009.6
2017-05-10T11:45:25.418Z,1009.7
2017-05-10T11:46:28.259Z,1009.7
2017-05-10T11:47:30.847Z,1009.6
2017-05-10T11:48:33.190Z,1009.6
2017-05-10T11:49:36.031Z,1009.6
2017-05-10T11:50:38.878Z,1009.6
2017-05-10T11:51:41.723Z,1009.6
2017-05-10T11:52:44.682Z,1009.5
2017-05-10T11:53:46.889Z,1009.6
2017-05-10T11:54:49.604Z,1009.5
2017-05-10T11:55:52.332Z,1009.5
2017-05-10T11:56:54.688Z,1009.5
2017-05-10T11:57:57.781Z,1009.5
2017-05-10T11:59:00.122Z,1009.5
2017-05-10T12:00:02.967Z,1009.5
2017-05-10T12:01:05.813Z,1009.5
2017-05-10T12:02:08.581Z,1009.5
2017-05-10T12:03:11.229Z,1009.4
2017-05-10T12:04:13.942Z,1009.5
2017-05-10T12:05:16.280Z,1009.5
2017-05-10T12:06:19.124Z,1009.5
2017-05-10T12:07:21.965Z,1009.5
2017-05-10T12:08:24.609Z,1009.4
2017-05-10T12:09:26.944Z,1009.4
2017-05-10T12:10:29.781Z,1009.4
2017-05-10T12:11:32.622Z,1009.4
2017-05-10T12:12:35.474Z,1009.4
2017-05-10T12:13:38.065Z,1009.4
2017-05-10T12:14:40.402Z,1009.4
2017-05-10T12:15:43.249Z,1009.4
2017-05-10T12:16:46.090Z,1009.4
2017-05-10T12:17:48.430Z,1009.4
2017-05-10T12:18:51.444Z,1009.4
2017-05-10T12:19:53.838Z,1009.3
2017-05-10T12:20:56.682Z,1009.3
2017-05-10T12:23:02.052Z,1009.3
2017-05-10T12:24:05.207Z,1009.3
2017-05-10T12:25:07.547Z,1009.3
2017-05-10T12:26:10.272Z,1009.3
2017-05-10T12:27:13.116Z,1009.3
2017-05-10T12:28:15.321Z,1009.4
2017-05-10T12:29:18.335Z,1009.3
2017-05-10T12:30:21.044Z,1009.2
2017-05-10T12:31:23.749Z,1009.2
2017-05-10T12:32:26.102Z,1009.2
2017-05-10T12:33:28.939Z,1009.2
2017-05-10T12:34:31.901Z,1009.2
2017-05-10T12:35:34.288Z,1009.2
2017-05-10T12:36:37.133Z,1009.2
2017-05-10T12:37:39.981Z,1009.2
2017-05-10T12:38:42.687Z,1009.2
2017-05-10T12:39:45.274Z,1009.1
2017-05-10T12:40:47.611Z,1009.2
2017-05-10T12:41:50.460Z,1009.2
2017-05-10T12:42:53.400Z,1009.2
2017-05-10T12:43:55.746Z,1009.1
2017-05-10T12:44:58.830Z,1009.1
2017-05-10T12:46:01.170Z,1009.1
2017-05-10T12:47:04.024Z,1009.2
2017-05-10T12:48:06.874Z,1009.2
2017-05-10T12:49:09.581Z,1009.1
2017-05-10T12:50:12.478Z,1009.1
2017-05-10T12:51:14.682Z,1009.1
2017-05-10T12:53:19.972Z,1009.1
2017-05-10T12:54:23.058Z,1009
2017-05-10T12:55:26.017Z,1009
2017-05-10T12:57:30.763Z,1008.9
2017-05-10T12:58:33.601Z,1009
2017-05-10T12:59:36.438Z,1008.9
2017-05-10T13:00:39.036Z,1008.9
2017-05-10T13:01:41.884Z,1008.8
2017-05-10T13:02:44.223Z,1008.9
2017-05-10T13:03:47.297Z,1008.9
2017-05-10T13:04:49.634Z,1008.9
2017-05-10T13:05:52.820Z,1008.9
2017-05-10T13:06:55.164Z,1008.9
2017-05-10T13:07:58.009Z,1008.9
2017-05-10T13:09:00.350Z,1008.9
2017-05-10T13:10:03.203Z,1008.9
2017-05-10T13:11:06.300Z,1008.8
2017-05-10T13:12:08.643Z,1008.8
2017-05-10T13:12:39.140Z,1008.8
2017-05-10T13:13:11.281Z,1008.8
2017-05-10T13:14:14.121Z,1008.8
2017-05-10T13:15:16.962Z,1008.8
2017-05-10T13:16:19.921Z,1008.8
2017-05-10T13:17:22.264Z,1008.7
2017-05-10T13:18:25.108Z,1008.7
2017-05-10T13:19:27.501Z,1008.7
2017-05-10T13:20:30.345Z,1008.7
2017-05-10T13:21:33.490Z,1008.6
2017-05-10T13:23:38.239Z,1008.7
2017-05-10T13:24:41.153Z,1008.6
2017-05-10T13:25:43.995Z,1008.6
2017-05-10T13:26:46.456Z,1008.6
2017-05-10T13:28:51.945Z,1008.5
2017-05-10T13:29:54.298Z,1008.5
2017-05-10T13:30:57.143Z,1008.5
2017-05-10T13:32:00.292Z,1008.5
2017-05-10T13:33:02.637Z,1008.5
2017-05-10T13:34:05.551Z,1008.6
2017-05-10T13:35:08.263Z,1008.6
2017-05-10T13:36:10.970Z,1008.5
2017-05-10T13:37:13.573Z,1008.5
2017-05-10T13:38:16.177Z,1008.5
2017-05-10T13:39:19.028Z,1008.5
2017-05-10T13:40:21.739Z,1008.4
2017-05-10T13:41:24.076Z,1008.5
2017-05-10T13:42:27.219Z,1008.5
2017-05-10T13:43:29.561Z,1008.4
2017-05-10T13:44:32.273Z,1008.4
2017-05-10T13:45:35.120Z,1008.4
2017-05-10T13:46:37.961Z,1008.5
2017-05-10T13:47:40.548Z,1008.4
2017-05-10T13:48:43.390Z,1008.3
2017-05-10T13:49:45.727Z,1008.3
2017-05-10T13:50:48.612Z,1008.4
2017-05-10T13:51:51.457Z,1008.3
2017-05-10T13:52:54.101Z,1008.3
2017-05-10T13:53:56.810Z,1008.3
2017-05-10T13:54:59.390Z,1008.2
2017-05-10T13:56:02.291Z,1008.2
2017-05-10T13:57:04.631Z,1008.3